createdAt,value
2019-04-28T00:02:07.578Z,100584.65
2019-04-28T00:04:37.581Z,100583.45
2019-04-28T00:07:08.026Z,100584.20
2019-04-28T00:09:38.346Z,100587.73
2019-04-28T00:12:08.686Z,100591.34
2019-04-28T00:14:38.692Z,100590.03
2019-04-28T00:17:08.641Z,100591.67
2019-04-28T00:19:38.643Z,100587.25
2019-04-28T00:22:11.023Z,100594.22
2019-04-28T00:24:42.802Z,100597.84
2019-04-28T00:27:12.945Z,100596.08
2019-04-28T00:29:46.037Z,100593.41
2019-04-28T00:32:14.770Z,100598.38
2019-04-28T00:34:44.871Z,100593.59
2019-04-28T00:37:16.487Z,100592.27
2019-04-28T00:39:46.589Z,100590.93
2019-04-28T00:42:16.522Z,100588.41
2019-04-28T00:44:46.615Z,100583.93
2019-04-28T00:47:16.554Z,100577.20
2019-04-28T00:49:46.557Z,100576.81
2019-04-28T00:52:18.195Z,100579.00
2019-04-28T00:54:48.889Z,100586.89
2019-04-28T00:57:21.090Z,100590.52
2019-04-28T00:59:57.512Z,100594.02
2019-04-28T01:02:25.055Z,100584.77
2019-04-28T01:04:55.373Z,100582.20
2019-04-28T01:07:25.502Z,100580.46
2019-04-28T01:09:55.597Z,100585.30
2019-04-28T01:12:25.737Z,100587.45
2019-04-28T01:14:57.983Z,100584.83
2019-04-28T01:17:45.783Z,100589.73
2019-04-28T01:20:19.564Z,100582.79
2019-04-28T01:22:49.739Z,100581.87
2019-04-28T01:25:20.393Z,100582.61
2019-04-28T01:27:55.192Z,100587.04
2019-04-28T01:30:29.917Z,100587.55
2019-04-28T01:33:06.136Z,100584.52
2019-04-28T01:35:36.238Z,100586.63
2019-04-28T01:38:07.482Z,100582.61
2019-04-28T01:40:37.476Z,100579.59
2019-04-28T01:43:07.447Z,100579.98
2019-04-28T01:45:37.459Z,100581.27
2019-04-28T01:48:07.428Z,100584.77
2019-04-28T01:50:37.431Z,100579.38
2019-04-28T01:53:09.742Z,100584.53
2019-04-28T01:55:41.163Z,100581.98
2019-04-28T01:58:11.341Z,100589.41
2019-04-28T02:00:41.435Z,100577.23
2019-04-28T02:03:11.416Z,100578.07
2019-04-28T02:05:41.906Z,100588.42
2019-04-28T02:08:11.878Z,100590.54
2019-04-28T02:10:41.892Z,100590.13
2019-04-28T02:13:11.873Z,100590.66
2019-04-28T02:15:41.864Z,100592.84
2019-04-28T02:18:11.844Z,100592.81
2019-04-28T02:20:43.433Z,100589.73
2019-04-28T02:23:17.707Z,100588.45
2019-04-28T02:25:49.687Z,100584.14
2019-04-28T02:28:19.810Z,100592.03
2019-04-28T02:30:53.624Z,100587.10
2019-04-28T02:33:21.713Z,100593.69
2019-04-28T02:35:51.712Z,100593.62
2019-04-28T02:38:21.706Z,100598.44
2019-04-28T02:40:51.721Z,100598.88
2019-04-28T02:43:21.787Z,100595.80
2019-04-28T02:45:53.423Z,100597.45
2019-04-28T02:48:25.310Z,100594.43
2019-04-28T02:50:56.868Z,100601.34
2019-04-28T02:53:33.098Z,100599.03
2019-04-28T02:56:00.921Z,100599.89
2019-04-28T02:58:31.410Z,100602.95
2019-04-28T03:01:11.089Z,100606.36
2019-04-28T03:03:33.262Z,100598.58
2019-04-28T03:06:03.260Z,100602.02
2019-04-28T03:08:33.332Z,100602.02
2019-04-28T03:11:03.875Z,100604.66
2019-04-28T03:13:33.850Z,100609.34
2019-04-28T03:16:03.974Z,100610.59
2019-04-28T03:18:33.937Z,100615.86
2019-04-28T03:21:04.654Z,100610.37
2019-04-28T03:23:34.785Z,100612.88
2019-04-28T03:26:06.344Z,100618.98
2019-04-28T03:28:44.157Z,100624.16
2019-04-28T03:31:48.393Z,100620.98
2019-04-28T03:33:55.064Z,100621.84
2019-04-28T03:36:23.415Z,100623.52
2019-04-28T03:38:54.056Z,100631.42
2019-04-28T03:41:24.177Z,100628.78
2019-04-28T03:43:54.251Z,100632.19
2019-04-28T03:46:30.504Z,100630.91
2019-04-28T03:49:00.930Z,100632.96
2019-04-28T03:51:31.202Z,100637.23
2019-04-28T03:54:02.930Z,100641.13
2019-04-28T03:56:32.918Z,100641.22
2019-04-28T03:59:02.984Z,100643.86
2019-04-28T04:01:32.976Z,100648.31
2019-04-28T04:04:03.523Z,100647.96
2019-04-28T04:06:33.811Z,100658.98
2019-04-28T04:09:04.581Z,100660.33
2019-04-28T04:11:36.152Z,100657.66
2019-04-28T04:14:07.688Z,100658.56
2019-04-28T04:16:40.535Z,100665.59
2019-04-28T04:19:15.226Z,100670.53
2019-04-28T04:21:45.325Z,100672.69
2019-04-28T04:24:15.286Z,100675.83
2019-04-28T04:26:45.285Z,100669.69
2019-04-28T04:29:15.254Z,100667.06
2019-04-28T04:31:45.357Z,100671.48
2019-04-28T04:34:15.325Z,100673.20
2019-04-28T04:36:45.317Z,100675.80
2019-04-28T04:39:15.282Z,100678.73
2019-04-28T04:41:45.275Z,100678.22
2019-04-28T04:44:15.241Z,100689.44
2019-04-28T04:46:45.238Z,100684.69
2019-04-28T04:49:15.211Z,100690.16
2019-04-28T04:51:46.705Z,100694.94
2019-04-28T04:54:20.285Z,100697.13
2019-04-28T04:56:50.208Z,100702.56
2019-04-28T04:59:20.388Z,100706.78
2019-04-28T05:02:02.068Z,100709.80
2019-04-28T05:04:36.912Z,100718.55
2019-04-28T05:07:06.991Z,100722.02
2019-04-28T05:09:36.920Z,100722.86
2019-04-28T05:12:06.912Z,100729.95
2019-04-28T05:14:36.840Z,100728.70
2019-04-28T05:17:06.833Z,100733.72
2019-04-28T05:19:36.763Z,100742.91
2019-04-28T05:22:07.366Z,100737.94
2019-04-28T05:24:40.313Z,100737.80
2019-04-28T05:27:10.855Z,100736.20
2019-04-28T05:29:40.792Z,100740.23
2019-04-28T05:32:10.981Z,100743.79
2019-04-28T05:34:46.745Z,100747.99
2019-04-28T05:37:12.596Z,100746.77
2019-04-28T05:39:42.625Z,100745.36
2019-04-28T05:42:12.725Z,100745.11
2019-04-28T05:44:42.762Z,100743.97
2019-04-28T05:47:12.747Z,100745.42
2019-04-28T05:49:47.089Z,100749.27
2019-04-28T05:52:35.014Z,100753.72
2019-04-28T05:55:11.382Z,100748.75
2019-04-28T05:57:53.119Z,100759.02
2019-04-28T06:00:37.119Z,100763.55
2019-04-28T06:03:14.750Z,100764.98
2019-04-28T06:05:44.687Z,100771.19
2019-04-28T06:08:16.253Z,100767.53
2019-04-28T06:10:46.194Z,100775.63
2019-04-28T06:13:16.513Z,100769.95
2019-04-28T06:15:46.452Z,100771.09
2019-04-28T06:18:16.453Z,100771.18
2019-04-28T06:20:46.389Z,100777.14
2019-04-28T06:23:16.371Z,100775.59
2019-04-28T06:25:46.303Z,100777.93
2019-04-28T06:28:16.379Z,100773.98
2019-04-28T06:30:49.178Z,100781.12
2019-04-28T06:33:19.370Z,100780.23
2019-04-28T06:35:49.402Z,100783.92
2019-04-28T06:38:19.492Z,100782.67
2019-04-28T06:40:49.428Z,100779.05
2019-04-28T06:43:19.523Z,100783.79
2019-04-28T06:45:49.853Z,100783.84
2019-04-28T06:48:19.930Z,100787.59
2019-04-28T06:50:49.856Z,100791.45
2019-04-28T06:53:19.856Z,100796.14
2019-04-28T06:55:49.876Z,100797.67
2019-04-28T06:58:19.964Z,100794.25
2019-04-28T07:00:49.991Z,100792.72
2019-04-28T07:03:23.212Z,100796.53
2019-04-28T07:05:51.610Z,100802.48
2019-04-28T07:08:21.588Z,100794.00
2019-04-28T07:10:51.519Z,100793.39
2019-04-28T07:13:21.508Z,100794.80
2019-04-28T07:15:51.591Z,100792.31
2019-04-28T07:18:21.575Z,100798.63
2019-04-28T07:20:53.113Z,100799.84
2019-04-28T07:23:23.116Z,100803.30
2019-04-28T07:25:53.195Z,100798.97
2019-04-28T07:28:23.241Z,100810.37
2019-04-28T07:30:53.285Z,100807.77
2019-04-28T07:33:35.320Z,100820.63
2019-04-28T07:35:55.150Z,100826.25
2019-04-28T07:38:25.375Z,100830.50
2019-04-28T07:40:55.808Z,100838.44
2019-04-28T07:43:26.586Z,100841.00
2019-04-28T07:45:58.017Z,100840.17
2019-04-28T07:48:29.328Z,100846.99
2019-04-28T07:51:00.352Z,100851.42
2019-04-28T07:53:32.824Z,100849.59
2019-04-28T07:56:04.649Z,100857.48
2019-04-28T07:58:36.436Z,100856.00
2019-04-28T08:01:09.160Z,100855.02
2019-04-28T08:03:49.201Z,100854.27
2019-04-28T08:06:12.346Z,100861.55
2019-04-28T08:08:43.887Z,100862.17
2019-04-28T08:11:15.129Z,100866.47
2019-04-28T08:13:46.262Z,100867.14
2019-04-28T08:16:17.271Z,100874.37
2019-04-28T08:18:48.254Z,100868.00
2019-04-28T08:21:19.616Z,100868.95
2019-04-28T08:23:51.413Z,100874.20
2019-04-28T08:26:23.005Z,100873.84
2019-04-28T08:28:54.090Z,100877.80
2019-04-28T08:31:28.205Z,100875.56
2019-04-28T08:34:03.927Z,100885.09
2019-04-28T08:36:34.912Z,100885.83
2019-04-28T08:39:10.644Z,100894.05
2019-04-28T08:41:41.699Z,100895.09
2019-04-28T08:44:13.353Z,100895.09
2019-04-28T08:46:45.301Z,100904.76
2019-04-28T08:49:16.355Z,100907.48
2019-04-28T08:51:47.825Z,100907.14
2019-04-28T08:54:18.517Z,100908.66
2019-04-28T08:56:49.287Z,100909.80
2019-04-28T08:59:20.873Z,100914.03
2019-04-28T09:01:51.828Z,100918.63
2019-04-28T09:04:22.334Z,100920.47
2019-04-28T09:06:53.417Z,100923.42
2019-04-28T09:09:24.470Z,100924.28
2019-04-28T09:11:55.874Z,100915.68
2019-04-28T09:14:26.910Z,100918.91
2019-04-28T09:16:58.635Z,100921.71
2019-04-28T09:19:29.574Z,100921.45
2019-04-28T09:22:01.503Z,100918.07
2019-04-28T09:24:32.313Z,100915.68
2019-04-28T09:27:03.113Z,100917.14
2019-04-28T09:29:33.825Z,100913.84
2019-04-28T09:32:05.230Z,100920.63
2019-04-28T09:34:36.920Z,100923.56
2019-04-28T09:37:07.097Z,100920.30
2019-04-28T09:39:41.528Z,100917.42
2019-04-28T09:42:31.289Z,100917.80
2019-04-28T09:45:02.956Z,100916.30
2019-04-28T09:47:33.015Z,100918.44
2019-04-28T09:50:03.005Z,100917.39
2019-04-28T09:52:33.104Z,100921.23
2019-04-28T09:55:03.089Z,100914.28
2019-04-28T09:57:33.062Z,100911.80
2019-04-28T10:00:03.052Z,100917.11
2019-04-28T10:02:33.025Z,100913.86
2019-04-28T10:05:03.099Z,100915.11
2019-04-28T10:07:33.078Z,100909.53
2019-04-28T10:10:03.423Z,100910.77
2019-04-28T10:12:33.501Z,100912.34
2019-04-28T10:15:04.043Z,100913.48
2019-04-28T10:17:34.007Z,100911.93
2019-04-28T10:20:04.852Z,100915.83
2019-04-28T10:22:34.818Z,100920.07
2019-04-28T10:25:08.128Z,100921.53
2019-04-28T10:27:38.272Z,100920.30
2019-04-28T10:30:10.204Z,100921.73
2019-04-28T10:32:40.288Z,100924.58
2019-04-28T10:35:10.457Z,100923.08
2019-04-28T10:37:40.533Z,100923.86
2019-04-28T10:40:15.467Z,100922.99
2019-04-28T10:42:45.547Z,100924.98
2019-04-28T10:45:17.250Z,100925.50
2019-04-28T10:47:47.290Z,100929.48
2019-04-28T10:50:17.508Z,100923.23
2019-04-28T10:52:47.577Z,100934.48
2019-04-28T10:55:17.644Z,100923.50
2019-04-28T10:57:47.712Z,100924.83
2019-04-28T11:00:19.333Z,100931.45
2019-04-28T11:02:49.316Z,100923.44
2019-04-28T11:05:24.200Z,100927.67
2019-04-28T11:07:54.873Z,100924.66
2019-04-28T11:10:24.915Z,100920.83
2019-04-28T11:12:54.964Z,100930.00
2019-04-28T11:15:35.533Z,100930.38
2019-04-28T11:18:07.978Z,100938.03
2019-04-28T11:20:38.210Z,100933.70
2019-04-28T11:23:08.396Z,100930.90
2019-04-28T11:25:38.902Z,100944.48
2019-04-28T11:28:09.994Z,100937.18
2019-04-28T11:30:41.394Z,100944.30
2019-04-28T11:33:13.719Z,100938.51
2019-04-28T11:35:45.980Z,100939.88
2019-04-28T11:38:16.703Z,100943.13
2019-04-28T11:40:47.200Z,100949.80
2019-04-28T11:43:17.958Z,100948.44
2019-04-28T11:45:48.764Z,100948.54
2019-04-28T11:48:19.941Z,100947.11
2019-04-28T11:50:51.119Z,100948.00
2019-04-28T11:53:21.909Z,100937.99
2019-04-28T11:55:51.995Z,100949.94
2019-04-28T11:58:22.703Z,100950.81
2019-04-28T12:00:53.429Z,100945.49
2019-04-28T12:03:23.988Z,100953.27
2019-04-28T12:05:54.827Z,100953.27
2019-04-28T12:08:25.263Z,100950.72
2019-04-28T12:11:13.600Z,100950.47
2019-04-28T12:14:01.664Z,100963.77
2019-04-28T12:16:50.449Z,100966.61
2019-04-28T12:19:38.105Z,100960.68
2019-04-28T12:22:26.450Z,100961.41
2019-04-28T12:24:59.033Z,100958.71
2019-04-28T12:27:30.446Z,100960.27
2019-04-28T12:30:01.145Z,100958.13
2019-04-28T12:32:32.198Z,100964.20
2019-04-28T12:35:03.179Z,100956.66
2019-04-28T12:37:34.252Z,100957.84
2019-04-28T12:40:07.624Z,100960.04
2019-04-28T12:42:39.807Z,100962.69
2019-04-28T12:45:11.049Z,100962.87
2019-04-28T12:47:44.693Z,100968.50
2019-04-28T12:50:27.395Z,100969.54
2019-04-28T12:52:59.753Z,100968.22
2019-04-28T12:55:31.472Z,100965.97
2019-04-28T12:58:03.545Z,100963.83
2019-04-28T13:00:36.689Z,100964.46
2019-04-28T13:03:16.119Z,100970.34
2019-04-28T13:06:01.462Z,100958.97
2019-04-28T13:08:27.629Z,100955.58
2019-04-28T13:10:58.864Z,100952.06
2019-04-28T13:13:29.085Z,100959.89
2019-04-28T13:15:59.616Z,100962.31
2019-04-28T13:18:29.619Z,100962.31
2019-04-28T13:20:59.887Z,100959.30
2019-04-28T13:23:33.514Z,100959.45
2019-04-28T13:26:03.265Z,100953.69
2019-04-28T13:28:33.364Z,100951.63
2019-04-28T13:31:07.435Z,100955.47
2019-04-28T13:33:53.780Z,100957.61
2019-04-28T13:36:15.118Z,100949.94
2019-04-28T13:38:42.479Z,100952.36
2019-04-28T13:41:12.638Z,100953.69
2019-04-28T13:43:42.700Z,100953.28
2019-04-28T13:46:14.100Z,100949.20
2019-04-28T13:48:44.561Z,100950.25
2019-04-28T13:51:14.973Z,100959.58
2019-04-28T13:53:46.903Z,100953.05
2019-04-28T13:56:18.191Z,100954.20
2019-04-28T13:58:50.814Z,100957.88
2019-04-28T14:01:22.659Z,100954.61
2019-04-28T14:04:15.439Z,100956.09
2019-04-28T14:06:47.801Z,100956.59
2019-04-28T14:09:19.017Z,100957.80
2019-04-28T14:11:56.235Z,100956.38
2019-04-28T14:14:26.829Z,100958.38
2019-04-28T14:16:59.125Z,100956.26
2019-04-28T14:19:29.533Z,100952.17
2019-04-28T14:22:03.982Z,100955.94
2019-04-28T14:24:34.794Z,100951.86
2019-04-28T14:27:06.603Z,100959.77
2019-04-28T14:29:37.651Z,100947.48
2019-04-28T14:32:09.102Z,100954.16
2019-04-28T14:34:39.834Z,100953.28
2019-04-28T14:37:10.851Z,100967.35
2019-04-28T14:39:41.072Z,100959.52
2019-04-28T14:42:11.588Z,100962.92
2019-04-28T14:44:44.063Z,100963.91
2019-04-28T14:47:16.510Z,100964.56
2019-04-28T14:49:49.209Z,100967.41
2019-04-28T14:52:21.135Z,100963.17
2019-04-28T14:54:53.073Z,100961.33
2019-04-28T14:57:24.270Z,100963.42
2019-04-28T14:59:54.880Z,100963.83
2019-04-28T15:02:30.038Z,100965.31
2019-04-28T15:05:12.127Z,100967.64
2019-04-28T15:08:01.092Z,100971.45
2019-04-28T15:10:36.463Z,100973.13
2019-04-28T15:13:07.881Z,100974.08
2019-04-28T15:15:39.044Z,100970.94
2019-04-28T15:18:09.786Z,100976.05
2019-04-28T15:20:40.494Z,100973.77
2019-04-28T15:23:13.491Z,100978.14
2019-04-28T15:25:45.078Z,100979.95
2019-04-28T15:28:16.215Z,100976.23
2019-04-28T15:30:47.833Z,100986.56
2019-04-28T15:33:19.564Z,100989.13
2019-04-28T15:35:50.123Z,100990.48
2019-04-28T15:38:21.321Z,100987.64
2019-04-28T15:40:54.842Z,100986.84
2019-04-28T15:43:26.089Z,100997.76
2019-04-28T15:45:57.356Z,100996.05
2019-04-28T15:48:28.291Z,101003.91
2019-04-28T15:51:00.528Z,101002.83
2019-04-28T15:53:35.049Z,101002.34
2019-04-28T15:56:13.327Z,101001.86
2019-04-28T15:58:44.483Z,101004.02
2019-04-28T16:01:16.758Z,101003.34
2019-04-28T16:03:47.414Z,101011.02
2019-04-28T16:06:21.978Z,101013.05
2019-04-28T16:08:57.407Z,101005.58
2019-04-28T16:11:36.116Z,101001.78
2019-04-28T16:14:04.827Z,101003.66
2019-04-28T16:16:37.624Z,101005.84
2019-04-28T16:19:08.986Z,101002.63
2019-04-28T16:21:44.502Z,101001.20
2019-04-28T16:24:15.710Z,101004.75
2019-04-28T16:26:45.871Z,101003.95
2019-04-28T16:29:15.976Z,100997.09
2019-04-28T16:31:46.081Z,101001.82
2019-04-28T16:34:16.177Z,101004.56
2019-04-28T16:36:46.572Z,100998.57
2019-04-28T16:39:17.323Z,101003.98
2019-04-28T16:41:54.357Z,101005.48
2019-04-28T16:44:25.107Z,101001.53
2019-04-28T16:46:55.240Z,101003.42
2019-04-28T16:49:27.243Z,101000.39
2019-04-28T16:52:02.608Z,101005.77
2019-04-28T16:54:34.097Z,101005.80
2019-04-28T16:59:44.364Z,101001.96
2019-04-28T17:02:22.535Z,101007.52
2019-04-28T17:05:05.929Z,101009.25
2019-04-28T17:07:53.191Z,101007.52
2019-04-28T17:10:18.979Z,101006.37
2019-04-28T17:12:49.151Z,101009.31
2019-04-28T17:15:19.605Z,101014.38
2019-04-28T17:17:55.779Z,101011.77
2019-04-28T17:20:26.044Z,101017.35
2019-04-28T17:22:56.127Z,101013.84
2019-04-28T17:25:26.262Z,101012.64
2019-04-28T17:28:04.190Z,101016.68
2019-04-28T17:31:03.666Z,101020.76
2019-04-28T17:33:22.437Z,101019.67
2019-04-28T17:35:57.777Z,101022.44
2019-04-28T17:38:28.293Z,101020.14
2019-04-28T17:40:58.887Z,101021.98
2019-04-28T17:43:39.530Z,101025.50
2019-04-28T17:46:08.086Z,101024.18
2019-04-28T17:48:40.358Z,101026.80
2019-04-28T17:51:13.458Z,101032.54
2019-04-28T17:53:43.945Z,101028.56
2019-04-28T17:56:15.747Z,101042.80
2019-04-28T17:58:46.627Z,101040.98
2019-04-28T18:01:21.970Z,101038.42
2019-04-28T18:04:10.089Z,101042.48
2019-04-28T18:06:44.976Z,101041.26
2019-04-28T18:09:15.839Z,101049.98
2019-04-28T18:11:47.048Z,101047.77
2019-04-28T18:14:36.533Z,101050.51
2019-04-28T18:17:38.132Z,101054.83
2019-04-28T18:20:11.845Z,101053.94
2019-04-28T18:22:42.205Z,101063.54
2019-04-28T18:25:12.984Z,101056.95
2019-04-28T18:27:43.820Z,101064.01
2019-04-28T18:30:15.867Z,101071.52
2019-04-28T18:33:04.635Z,101074.34
2019-04-28T18:35:36.803Z,101073.77
2019-04-28T18:38:18.495Z,101071.50
2019-04-28T18:40:53.336Z,101073.27
2019-04-28T18:43:25.587Z,101077.87
2019-04-28T18:45:56.737Z,101082.83
2019-04-28T18:48:27.156Z,101084.15
2019-04-28T18:50:58.438Z,101081.13
2019-04-28T18:56:17.404Z,101081.19
2019-04-28T18:58:49.838Z,101081.64
2019-04-28T19:01:25.121Z,101078.17
2019-04-28T19:03:59.812Z,101083.08
2019-04-28T19:06:43.197Z,101083.30
2019-04-28T19:09:34.263Z,101085.94
2019-04-28T19:12:06.393Z,101086.50
2019-04-28T19:14:41.498Z,101097.84
2019-04-28T19:17:13.468Z,101087.52
2019-04-28T19:19:47.237Z,101087.84
2019-04-28T19:22:20.200Z,101087.06
2019-04-28T19:24:51.731Z,101082.24
2019-04-28T19:27:30.179Z,101093.23
2019-04-28T19:30:03.929Z,101089.86
2019-04-28T19:32:36.413Z,101089.74
2019-04-28T19:35:17.220Z,101087.91
2019-04-28T19:37:44.421Z,101085.40
2019-04-28T19:40:17.592Z,101084.55
2019-04-28T19:42:51.261Z,101083.58
2019-04-28T19:45:23.060Z,101085.28
2019-04-28T19:47:53.500Z,101085.16
2019-04-28T19:50:24.068Z,101083.13
2019-04-28T19:52:56.449Z,101085.73
2019-04-28T19:55:32.340Z,101076.64
2019-04-28T19:58:07.421Z,101078.97
2019-04-28T20:00:42.844Z,101078.09
2019-04-28T20:03:14.656Z,101078.12
2019-04-28T20:05:47.064Z,101077.28
2019-04-28T20:08:18.121Z,101077.77
2019-04-28T20:10:49.357Z,101079.16
2019-04-28T20:13:21.754Z,101077.30
2019-04-28T20:15:54.358Z,101068.56
2019-04-28T20:18:29.500Z,101064.15
2019-04-28T20:21:02.033Z,101063.28
2019-04-28T20:23:34.790Z,101064.61
2019-04-28T20:26:07.348Z,101064.61
2019-04-28T20:28:39.187Z,101063.89
2019-04-28T20:31:13.886Z,101061.76
2019-04-28T20:33:47.774Z,101062.09
2019-04-28T20:36:33.138Z,101064.80
2019-04-28T20:39:07.591Z,101071.36
2019-04-28T20:41:38.833Z,101073.59
2019-04-28T20:44:10.162Z,101067.90
2019-04-28T20:46:41.515Z,101070.52
2019-04-28T20:49:14.665Z,101071.41
2019-04-28T20:51:51.608Z,101068.77
2019-04-28T20:54:24.815Z,101068.45
2019-04-28T20:56:56.952Z,101071.09
2019-04-28T20:59:30.126Z,101067.63
2019-04-28T21:02:00.521Z,101065.80
2019-04-28T21:04:31.042Z,101072.48
2019-04-28T21:07:15.625Z,101064.69
2019-04-28T21:09:48.512Z,101069.52
2019-04-28T21:12:18.674Z,101058.08
2019-04-28T21:14:48.727Z,101052.52
2019-04-28T21:17:18.633Z,101051.94
2019-04-28T21:19:48.601Z,101054.17
2019-04-28T21:22:18.603Z,101057.25
2019-04-28T21:24:48.563Z,101056.36
2019-04-28T21:27:18.497Z,101058.98
2019-04-28T21:29:48.469Z,101057.19
2019-04-28T21:32:18.511Z,101049.64
2019-04-28T21:34:48.479Z,101051.52
2019-04-28T21:37:18.688Z,101043.16
2019-04-28T21:39:48.646Z,101040.63
2019-04-28T21:42:20.166Z,101041.08
2019-04-28T21:44:54.517Z,101049.40
2019-04-28T21:47:35.178Z,101043.21
2019-04-28T21:50:06.862Z,101042.30
2019-04-28T21:52:36.887Z,101045.84
2019-04-28T21:55:07.762Z,101039.66
2019-04-28T21:57:37.793Z,101040.45
2019-04-28T22:00:09.866Z,101037.39
2019-04-28T22:02:39.902Z,101036.92
2019-04-28T22:05:09.880Z,101031.20
2019-04-28T22:07:39.986Z,101025.12
2019-04-28T22:10:10.049Z,101022.91
2019-04-28T22:12:40.085Z,101021.78
2019-04-28T22:15:10.184Z,101011.78
2019-04-28T22:17:40.123Z,101009.61
2019-04-28T22:20:10.645Z,101003.50
2019-04-28T22:22:40.570Z,101006.58
2019-04-28T22:25:12.227Z,101003.48
2019-04-28T22:27:42.264Z,101005.26
2019-04-28T22:30:12.437Z,101006.63
2019-04-28T22:32:42.473Z,101002.72
2019-04-28T22:35:12.863Z,101007.05
2019-04-28T22:37:42.872Z,101005.31
2019-04-28T22:40:13.466Z,101008.77
2019-04-28T22:42:43.494Z,100999.97
2019-04-28T22:45:15.388Z,101007.88
2019-04-28T22:47:45.422Z,101004.81
2019-04-28T22:50:36.103Z,101000.87
2019-04-28T22:53:06.130Z,101006.58
2019-04-28T22:55:40.562Z,101001.79
2019-04-28T22:58:15.226Z,101007.05
2019-04-28T23:00:53.144Z,100997.33
2019-04-28T23:03:39.484Z,101003.81
2019-04-28T23:06:10.594Z,101001.68
2019-04-28T23:08:40.900Z,100994.06
2019-04-28T23:11:11.090Z,100986.61
2019-04-28T23:13:41.175Z,100980.53
2019-04-28T23:16:11.265Z,100977.39
2019-04-28T23:18:41.289Z,100979.12
2019-04-28T23:21:13.165Z,100980.30
2019-04-28T23:23:43.285Z,100965.86
2019-04-28T23:26:13.380Z,100963.72
2019-04-28T23:28:43.413Z,100967.29
2019-04-28T23:31:13.516Z,100959.41
2019-04-28T23:33:43.557Z,100957.49
2019-04-28T23:36:13.745Z,100952.20
2019-04-28T23:38:43.787Z,100941.29
2019-04-28T23:41:15.457Z,100931.19
2019-04-28T23:43:45.394Z,100927.21
2019-04-28T23:46:15.498Z,100922.38
2019-04-28T23:48:45.536Z,100913.64
2019-04-28T23:51:17.215Z,100907.02
2019-04-28T23:54:03.761Z,100913.64
2019-04-28T23:56:33.762Z,100908.05
2019-04-28T23:59:03.795Z,100899.16
